Yiewsley, United Kingdom

12:05 AM BST on August 21, 2017 (GMT +0100)
West Drayton, The Green | | Change Station

Elev 89 ft 51.50 °N, 0.48 °W | Updated 10 seconds ago

Rain
Rain
57.7 °F
Feels Like 57.7 °F
N
0.0
Wind Variable Wind from ESE
Gusts 0.0 mph

Today
High -- | Low -- °F
--% Chance of Precip.
Yesterday
High -- | Low -- °F
Precip. -- in
Pressure 30.21 in
Visibility -9999.0 miles
Clouds Few 500 ft
Scattered Clouds 1700 ft
Mostly Cloudy 2700 ft
Dew Point 57 °F
Humidity 98%
Rainfall 0.00 in
Snow Depth Not available.
5:57 AM 8:11 PM
Waning Crescent, 1% visible
METAR EGLL 202250Z AUTO 13005KT 3800 RA FEW005/// SCT017/// BKN027/// //////TCU 14/13 Q1023 REDZ TEMPO 6000 BKN012
Pressure 30.21 in
Visibility -9999.0 miles
Clouds Few 500 ft
Scattered Clouds 1700 ft
Mostly Cloudy 2700 ft
Dew Point 57 °F
Humidity 98%
Rainfall 0.00 in
Snow Depth Not available.
5:57 AM 8:11 PM
Waning Crescent, 1% visible
METAR EGLL 202250Z AUTO 13005KT 3800 RA FEW005/// SCT017/// BKN027/// //////TCU 14/13 Q1023 REDZ TEMPO 6000 BKN012

Get Severe Weather Alerts

Thanks for signing up!

Be on the lookout for a verification email in your inbox.

You'll start receiving the daily forecast at 6 AM.

×

10-Day Weather Forecast

×

Almanac

Astronomy

Aug. 21, 2017 Rise Set
Actual Time
Civil Twilight
Nautical Twilight
Astronomical Twilight
Moon
Length of Visible Light
Length of Day
Tomorrow will be .
, % of the Moon is Illuminated

Today's Extremes

Country Highs Country Lows

Community

WunderPhotos

Category 6

Welcome to Category 6. This is the collective home for Weather Underground's featured writeups by Dr. Jeff Masters (right), Bob Henson (left), Chris Burt, and other regular contributors.

Nearby

Air Quality

  Air Quality AQ Index Pollutant
Not available.

Snow Depth

Station Depth Elevation

Earthquake Activity

City Distance Mag. Time & Date
Minimum magnitude displayed is 2.5.

Coastal Water Temperatures

Place Temperature

Stations

Nearby Weather Stations

Station Location Temp. Windchill Dew Point Humidity Wind Precip. Elev Updated Type